Startpagina
METAR-TAF:

METAR-TAF

Vliegvelden :

Niamey, Niger

Luchthaven Diori Hamani

breedte: 13-29N, lengte: 002-10E, hoogte: 223 m

Actueel weer

Dit bericht is 30 minuten geleden gemaakt, om 04:00 UTC
Wind 4 kt uit het noordnoordoosten
Temperatuur 23°C
Vochtigheid 47%
Druk 1012 hPa
Zicht 10 km of meer
geen wolken onder 1500 m en geen cumulonimbus

METAR: DRRN 140400Z 03004KT CAVOK 23/11 Q1012 NOSIG

Tijdstip: 05:30 (04:30 UTC)

Verwachting

Dit bericht is 5 uur en het 30 minuten geleden gemaakt, om 23:00 UTC
Verwachting geldig van 14 om 00 UTC tot 15 om 06 UTC
Wind 8 kt uit het oosten
Zicht: 8000 m
Tijdelijke
van 14 om 06 UTC tot 14 om 09 UTC
Zicht: 4000 m
verspreid stof

TAF: DRRN 132300Z 1400/1506 08008KT 8000 NSC TEMPO 1406/1409 4000 DU

Waarnemingen en weersverwachtingen van meer dan 4000 vliegvelden (METAR en TAF).

De beschikbare stations zijn de gele en rode punten op de kaart.

Ga met uw muis naar het station om de naam te zien.

Klik dan om waarnemingen en weersverwachtingen te zien.

kaart wijzigen: klik op de groene knoppen met een zwart kruis om in te zoomen, op de groene knop met een streepje om uit te zoomen of op de groene pijlen voor aangrenzende kaarten.


METAR-TAF: